createdAt,value
2023-01-29T00:00:32.278Z,0.16
2023-01-29T00:01:32.237Z,0.21
2023-01-29T00:02:32.240Z,0.33
2023-01-29T00:03:32.267Z,0.42
2023-01-29T00:04:32.222Z,0.48
2023-01-29T00:05:32.252Z,0.43
2023-01-29T00:06:32.240Z,0.33
2023-01-29T00:07:32.206Z,0.24
2023-01-29T00:08:32.205Z,0.23
2023-01-29T00:09:32.230Z,0.46
2023-01-29T00:10:32.228Z,0.34
2023-01-29T00:11:32.223Z,0.41
2023-01-29T00:12:32.219Z,0.41
2023-01-29T00:13:32.198Z,0.62
2023-01-29T00:14:32.181Z,0.65
2023-01-29T00:15:32.201Z,0.64
2023-01-29T00:16:32.172Z,0.52
2023-01-29T00:17:32.166Z,0.48
2023-01-29T00:18:32.152Z,0.45
2023-01-29T00:19:32.156Z,0.49
2023-01-29T00:20:32.171Z,0.53
2023-01-29T00:21:32.218Z,0.46
2023-01-29T00:22:32.126Z,0.53
2023-01-29T00:23:32.118Z,0.60
2023-01-29T00:24:32.170Z,0.61
2023-01-29T00:25:32.104Z,0.70
2023-01-29T00:26:32.112Z,0.80
2023-01-29T00:27:32.108Z,0.72
2023-01-29T00:28:32.093Z,0.85
2023-01-29T00:29:32.085Z,0.90
2023-01-29T00:30:32.101Z,0.90
2023-01-29T00:31:32.119Z,1.04
2023-01-29T00:32:32.059Z,1.10
2023-01-29T00:33:32.071Z,1.08
2023-01-29T00:34:32.072Z,1.00
2023-01-29T00:35:32.055Z,0.80
2023-01-29T00:36:32.059Z,0.76
2023-01-29T00:37:33.059Z,0.90
2023-01-29T00:38:32.061Z,0.88
2023-01-29T00:39:46.734Z,0.80
2023-01-29T00:40:34.064Z,1.01
2023-01-29T00:41:32.034Z,1.08
2023-01-29T00:42:32.025Z,1.19
2023-01-29T00:43:32.025Z,1.32
2023-01-29T00:44:32.007Z,1.32
2023-01-29T00:45:32.001Z,1.16
2023-01-29T00:46:32.058Z,1.24
2023-01-29T00:47:31.977Z,1.50
2023-01-29T00:48:31.987Z,1.50
2023-01-29T00:49:32.015Z,1.55
2023-01-29T00:50:31.977Z,1.64
2023-01-29T00:51:31.960Z,1.75
2023-01-29T00:52:31.975Z,1.71
2023-01-29T00:53:31.985Z,1.79
2023-01-29T00:54:33.125Z,1.65
2023-01-29T00:55:32.945Z,1.61
2023-01-29T00:56:31.949Z,1.37
2023-01-29T00:57:31.943Z,1.57
2023-01-29T00:58:31.948Z,1.57
2023-01-29T00:59:31.945Z,1.61
2023-01-29T01:00:32.049Z,1.71
2023-01-29T01:01:31.934Z,1.65
2023-01-29T01:02:31.897Z,1.83
2023-01-29T01:03:31.895Z,1.79
2023-01-29T01:04:33.539Z,1.78
2023-01-29T01:05:31.874Z,1.97
2023-01-29T01:06:31.871Z,1.89
2023-01-29T01:07:31.884Z,1.75
2023-01-29T01:08:31.858Z,1.89
2023-01-29T01:09:31.880Z,1.91
2023-01-29T01:10:31.877Z,1.87
2023-01-29T01:11:31.848Z,1.79
2023-01-29T01:12:31.846Z,1.93
2023-01-29T01:13:31.852Z,1.89
2023-01-29T01:14:31.849Z,1.87
2023-01-29T01:15:31.852Z,1.89
2023-01-29T01:16:31.877Z,1.91
2023-01-29T01:17:31.812Z,1.97
2023-01-29T01:18:31.811Z,1.89
2023-01-29T01:19:31.820Z,1.94
2023-01-29T01:20:31.802Z,2.01
2023-01-29T01:21:31.784Z,1.90
2023-01-29T01:22:31.796Z,1.94
2023-01-29T01:23:31.775Z,1.99
2023-01-29T01:24:31.818Z,1.94
2023-01-29T01:25:31.812Z,1.94
2023-01-29T01:26:31.787Z,1.91
2023-01-29T01:27:31.767Z,1.87
2023-01-29T01:28:31.770Z,1.89
2023-01-29T01:29:31.742Z,1.99
2023-01-29T01:30:31.749Z,1.90
2023-01-29T01:31:31.799Z,1.55
2023-01-29T01:32:31.709Z,1.54
2023-01-29T01:33:31.712Z,1.71
2023-01-29T01:34:31.722Z,1.87
2023-01-29T01:35:31.718Z,1.99
2023-01-29T01:36:31.686Z,1.94
2023-01-29T01:37:31.711Z,2.08
2023-01-29T01:38:31.678Z,2.12
2023-01-29T01:39:31.695Z,2.04
2023-01-29T01:40:31.694Z,2.04
2023-01-29T01:41:31.713Z,1.94
2023-01-29T01:42:31.669Z,2.02
2023-01-29T01:43:31.670Z,2.06
2023-01-29T01:44:31.643Z,2.06
2023-01-29T01:45:31.677Z,2.04
2023-01-29T01:46:31.657Z,1.94
2023-01-29T01:47:31.639Z,1.91
2023-01-29T01:48:31.633Z,1.97
2023-01-29T01:49:31.633Z,1.99
2023-01-29T01:50:31.632Z,1.99
2023-01-29T01:51:31.619Z,1.78
2023-01-29T01:52:31.606Z,1.57
2023-01-29T01:53:31.622Z,1.54
2023-01-29T01:54:31.590Z,1.68
2023-01-29T01:55:31.593Z,1.83
2023-01-29T01:56:31.574Z,1.93
2023-01-29T01:57:31.576Z,1.87
2023-01-29T01:58:31.578Z,1.79
2023-01-29T01:59:31.556Z,1.64
2023-01-29T02:00:31.552Z,1.47
2023-01-29T02:01:31.553Z,1.61
2023-01-29T02:02:31.571Z,1.65
2023-01-29T02:03:31.524Z,1.71
2023-01-29T02:04:31.562Z,1.55
2023-01-29T02:05:31.501Z,1.57
2023-01-29T02:06:31.517Z,1.47
2023-01-29T02:07:31.538Z,1.42
2023-01-29T02:08:31.497Z,1.61
2023-01-29T02:09:31.502Z,1.57
2023-01-29T02:10:31.487Z,1.64
2023-01-29T02:11:31.481Z,1.62
2023-01-29T02:12:31.535Z,1.44
2023-01-29T02:13:31.490Z,1.29
2023-01-29T02:14:31.460Z,1.42
2023-01-29T02:15:31.456Z,1.55
2023-01-29T02:16:31.464Z,1.61
2023-01-29T02:17:31.492Z,1.75
2023-01-29T02:18:31.468Z,1.57
2023-01-29T02:19:31.434Z,1.46
2023-01-29T02:20:31.437Z,1.68
2023-01-29T02:21:31.408Z,1.80
2023-01-29T02:22:31.422Z,1.71
2023-01-29T02:23:31.443Z,1.69
2023-01-29T02:24:31.413Z,1.60
2023-01-29T02:25:31.419Z,1.69
2023-01-29T02:26:31.392Z,1.73
2023-01-29T02:27:31.373Z,1.89
2023-01-29T02:28:31.388Z,1.83
2023-01-29T02:29:32.361Z,1.91
2023-01-29T02:30:31.359Z,2.02
2023-01-29T02:31:31.400Z,1.69
2023-01-29T02:32:31.339Z,1.50
2023-01-29T02:33:31.337Z,1.33
2023-01-29T02:34:31.339Z,1.62
2023-01-29T02:35:31.329Z,1.65
2023-01-29T02:36:31.334Z,1.82
2023-01-29T02:37:31.315Z,1.83
2023-01-29T02:38:31.298Z,1.91
2023-01-29T02:39:31.291Z,1.91
2023-01-29T02:40:31.289Z,1.98
2023-01-29T02:41:31.303Z,2.02
2023-01-29T02:42:31.283Z,2.09
2023-01-29T02:43:31.281Z,2.04
2023-01-29T02:44:31.262Z,2.09
2023-01-29T02:45:31.320Z,1.79
2023-01-29T02:46:31.274Z,1.82
2023-01-29T02:47:31.236Z,1.99
2023-01-29T02:48:31.251Z,1.87
2023-01-29T02:49:31.246Z,1.76
2023-01-29T02:50:31.223Z,1.82
2023-01-29T02:51:31.231Z,1.79
2023-01-29T02:52:31.240Z,1.72
2023-01-29T02:53:31.203Z,1.83
2023-01-29T02:54:31.200Z,1.87
2023-01-29T02:55:31.208Z,1.73
2023-01-29T02:56:31.203Z,1.52
2023-01-29T02:57:31.185Z,1.69
2023-01-29T02:58:31.206Z,1.61
2023-01-29T02:59:31.175Z,1.73
2023-01-29T03:00:31.179Z,1.68
2023-01-29T03:01:31.173Z,1.72
2023-01-29T03:02:31.257Z,1.79
2023-01-29T03:03:31.156Z,1.73
2023-01-29T03:04:31.158Z,1.93
2023-01-29T03:05:31.129Z,1.89
2023-01-29T03:06:31.131Z,1.75
2023-01-29T03:07:31.141Z,1.83
2023-01-29T03:08:31.122Z,1.89
2023-01-29T03:09:31.103Z,1.85
2023-01-29T03:10:31.100Z,1.76
2023-01-29T03:11:31.093Z,1.93
2023-01-29T03:12:31.090Z,1.90
2023-01-29T03:13:31.100Z,2.10
2023-01-29T03:14:32.071Z,2.01
2023-01-29T03:15:31.075Z,2.06
2023-01-29T03:16:31.115Z,2.09
2023-01-29T03:17:31.045Z,2.08
2023-01-29T03:18:31.065Z,2.10
2023-01-29T03:19:31.046Z,2.28
2023-01-29T03:20:31.046Z,2.10
2023-01-29T03:21:31.071Z,2.26
2023-01-29T03:22:31.026Z,2.15
2023-01-29T03:23:31.018Z,2.16
2023-01-29T03:24:31.024Z,2.13
2023-01-29T03:25:31.006Z,2.06
2023-01-29T03:26:31.012Z,2.10
2023-01-29T03:27:31.004Z,2.12
2023-01-29T03:28:30.973Z,2.06
2023-01-29T03:29:30.976Z,1.94
2023-01-29T03:30:30.984Z,1.89
2023-01-29T03:31:31.099Z,1.93
2023-01-29T03:32:30.974Z,2.08
2023-01-29T03:33:30.961Z,2.02
2023-01-29T03:34:31.949Z,2.02
2023-01-29T03:35:30.927Z,1.93
2023-01-29T03:36:31.937Z,1.90
2023-01-29T03:37:30.936Z,1.76
2023-01-29T03:38:30.962Z,1.73
2023-01-29T03:39:30.944Z,1.76
2023-01-29T03:40:30.905Z,1.61
2023-01-29T03:41:30.906Z,1.69
2023-01-29T03:42:30.911Z,1.75
2023-01-29T03:43:30.908Z,1.73
2023-01-29T03:44:30.890Z,1.46
2023-01-29T03:45:30.997Z,1.43
2023-01-29T03:46:30.880Z,1.44
2023-01-29T03:47:30.873Z,1.46
2023-01-29T03:48:30.878Z,1.42
2023-01-29T03:49:30.863Z,1.42
2023-01-29T03:50:30.852Z,1.42
2023-01-29T03:51:30.855Z,1.40
2023-01-29T03:52:30.851Z,1.26
2023-01-29T03:53:30.854Z,1.39
2023-01-29T03:54:30.850Z,1.32
2023-01-29T03:55:30.834Z,1.50
2023-01-29T03:56:30.819Z,1.58
2023-01-29T03:57:30.816Z,1.64
2023-01-29T03:58:30.800Z,1.40
2023-01-29T03:59:30.799Z,1.51
2023-01-29T04:00:30.830Z,1.46
2023-01-29T04:01:30.810Z,1.60
2023-01-29T04:02:30.777Z,1.46
2023-01-29T04:03:30.788Z,1.40
2023-01-29T04:04:30.770Z,1.43
2023-01-29T04:05:30.777Z,1.40
2023-01-29T04:06:30.778Z,1.69
2023-01-29T04:07:30.744Z,1.61
2023-01-29T04:08:30.749Z,1.46
2023-01-29T04:09:30.741Z,1.46
2023-01-29T04:10:30.745Z,1.51
2023-01-29T04:11:30.716Z,1.28
2023-01-29T04:12:30.742Z,1.10
2023-01-29T04:13:30.704Z,1.07
2023-01-29T04:14:30.719Z,1.21
2023-01-29T04:15:30.701Z,1.19
2023-01-29T04:16:30.767Z,1.16
2023-01-29T04:17:30.680Z,0.90
2023-01-29T04:18:30.680Z,0.97
2023-01-29T04:19:30.690Z,0.96
2023-01-29T04:20:30.663Z,1.26
2023-01-29T04:21:30.672Z,1.32
2023-01-29T04:22:30.688Z,1.32
2023-01-29T04:23:30.650Z,1.16
2023-01-29T04:24:30.671Z,1.04
2023-01-29T04:25:30.632Z,0.76
2023-01-29T04:26:30.623Z,0.85
2023-01-29T04:27:30.625Z,0.64
2023-01-29T04:28:30.614Z,0.52
2023-01-29T04:29:30.604Z,0.67
2023-01-29T04:30:30.615Z,0.82
2023-01-29T04:31:30.648Z,0.90
2023-01-29T04:32:30.603Z,0.75
2023-01-29T04:33:30.601Z,0.83
2023-01-29T04:34:30.587Z,0.86
2023-01-29T04:35:30.571Z,1.03
2023-01-29T04:36:30.558Z,0.97
2023-01-29T04:37:30.584Z,1.10
2023-01-29T04:38:30.567Z,1.19
2023-01-29T04:39:30.575Z,1.28
2023-01-29T04:40:30.535Z,1.34
2023-01-29T04:41:30.542Z,1.21
2023-01-29T04:42:30.531Z,1.14
2023-01-29T04:43:30.522Z,1.06
2023-01-29T04:44:30.540Z,1.00
2023-01-29T04:45:30.516Z,1.06
2023-01-29T04:46:30.505Z,0.96
2023-01-29T04:47:30.565Z,0.97
2023-01-29T04:48:30.510Z,1.00
2023-01-29T04:49:30.512Z,1.07
2023-01-29T04:50:31.498Z,1.04
2023-01-29T04:51:30.486Z,1.08
2023-01-29T04:52:30.478Z,0.90
2023-01-29T04:53:30.461Z,0.83
2023-01-29T04:54:30.465Z,0.68
2023-01-29T04:55:30.448Z,0.72
2023-01-29T04:56:30.456Z,0.75
2023-01-29T04:57:30.449Z,0.94
2023-01-29T04:58:30.452Z,0.96
2023-01-29T04:59:30.434Z,1.03
2023-01-29T05:00:30.429Z,1.08
2023-01-29T05:01:30.427Z,1.26
2023-01-29T05:02:30.467Z,1.21
2023-01-29T05:03:30.432Z,1.16
2023-01-29T05:04:30.398Z,1.15
2023-01-29T05:05:30.416Z,1.00
2023-01-29T05:06:30.389Z,1.12
2023-01-29T05:07:30.396Z,1.04
2023-01-29T05:08:30.379Z,0.98
2023-01-29T05:09:30.371Z,0.92
2023-01-29T05:10:30.368Z,0.94
2023-01-29T05:11:30.370Z,0.80
2023-01-29T05:12:30.389Z,0.83
2023-01-29T05:13:30.343Z,0.92
2023-01-29T05:14:30.357Z,0.83
2023-01-29T05:15:30.344Z,0.76
2023-01-29T05:16:30.327Z,0.76
2023-01-29T05:17:30.335Z,0.67
2023-01-29T05:18:30.331Z,0.52
2023-01-29T05:19:30.331Z,0.61
2023-01-29T05:20:30.330Z,0.60
2023-01-29T05:21:30.305Z,0.72
2023-01-29T05:22:30.289Z,0.67
2023-01-29T05:23:30.309Z,0.48
2023-01-29T05:24:30.320Z,0.39
2023-01-29T05:25:30.299Z,0.36
2023-01-29T05:26:30.273Z,0.38
2023-01-29T05:27:31.279Z,0.42
2023-01-29T05:28:30.263Z,0.46
2023-01-29T05:29:30.259Z,0.60
2023-01-29T05:30:30.259Z,0.62
2023-01-29T05:31:30.350Z,0.65
2023-01-29T05:32:30.243Z,0.75
2023-01-29T05:33:30.238Z,0.75
2023-01-29T05:34:30.222Z,0.64
2023-01-29T05:35:31.223Z,0.72
2023-01-29T05:36:30.229Z,0.65
2023-01-29T05:37:30.224Z,0.80
2023-01-29T05:38:30.210Z,0.75
2023-01-29T05:39:30.220Z,0.75
2023-01-29T05:40:30.194Z,0.62
2023-01-29T05:41:30.189Z,0.51
2023-01-29T05:42:30.194Z,0.67
2023-01-29T05:43:30.194Z,0.52
2023-01-29T05:44:30.176Z,0.62
2023-01-29T05:45:30.175Z,0.71
2023-01-29T05:46:30.191Z,0.80
2023-01-29T05:47:30.172Z,0.90
2023-01-29T05:48:30.149Z,0.80
2023-01-29T05:49:30.162Z,0.72
2023-01-29T05:50:30.157Z,0.72
2023-01-29T05:51:30.146Z,0.86
2023-01-29T05:52:30.138Z,0.79
2023-01-29T05:53:30.136Z,0.89
2023-01-29T05:54:30.127Z,0.94
2023-01-29T05:55:30.114Z,1.00
2023-01-29T05:56:30.117Z,0.98
2023-01-29T05:57:30.150Z,0.97
2023-01-29T05:58:30.105Z,1.00
2023-01-29T05:59:30.091Z,1.00
2023-01-29T06:00:31.082Z,0.96
2023-01-29T06:01:30.118Z,1.06
2023-01-29T06:02:30.124Z,1.04
2023-01-29T06:03:30.069Z,0.88
2023-01-29T06:04:30.061Z,1.03
2023-01-29T06:05:30.062Z,1.04
2023-01-29T06:06:30.052Z,1.21
2023-01-29T06:07:30.031Z,1.07
2023-01-29T06:08:30.042Z,1.16
2023-01-29T06:09:30.032Z,1.03
2023-01-29T06:10:30.018Z,0.96
2023-01-29T06:11:30.034Z,0.86
2023-01-29T06:12:30.012Z,0.92
2023-01-29T06:13:30.017Z,0.79
2023-01-29T06:14:30.009Z,0.92
2023-01-29T06:15:30.005Z,0.90
2023-01-29T06:16:30.106Z,0.98
2023-01-29T06:17:29.989Z,1.06
2023-01-29T06:18:29.988Z,0.97
2023-01-29T06:19:29.980Z,0.94
2023-01-29T06:20:29.975Z,0.86
2023-01-29T06:21:29.964Z,0.85
2023-01-29T06:22:29.981Z,0.96
2023-01-29T06:23:29.954Z,0.94
2023-01-29T06:24:30.007Z,0.92
2023-01-29T06:25:29.955Z,0.90
2023-01-29T06:26:29.938Z,0.89
2023-01-29T06:27:29.945Z,0.86
2023-01-29T06:28:29.924Z,0.98
2023-01-29T06:29:29.920Z,0.78
2023-01-29T06:30:30.022Z,0.64
2023-01-29T06:31:39.040Z,0.67
2023-01-29T06:32:32.003Z,0.70
2023-01-29T06:33:29.947Z,0.72
2023-01-29T06:34:29.917Z,0.62
2023-01-29T06:35:29.900Z,0.57
2023-01-29T06:36:29.880Z,0.46
2023-01-29T06:37:29.887Z,0.67
2023-01-29T06:38:29.856Z,0.80
2023-01-29T06:39:29.858Z,0.85
2023-01-29T06:40:29.860Z,0.79
2023-01-29T06:41:29.842Z,0.65
2023-01-29T06:42:29.846Z,0.61
2023-01-29T06:43:29.852Z,0.52
2023-01-29T06:44:29.834Z,0.57
2023-01-29T06:45:29.897Z,0.67
2023-01-29T06:46:29.826Z,0.42
2023-01-29T06:47:29.828Z,0.43
2023-01-29T06:48:29.833Z,0.43
2023-01-29T06:49:29.818Z,0.58
2023-01-29T06:50:29.791Z,0.52
2023-01-29T06:51:29.788Z,0.60
2023-01-29T06:52:29.827Z,0.75
2023-01-29T06:53:29.782Z,0.76
2023-01-29T06:54:29.773Z,0.78
2023-01-29T06:55:29.795Z,0.70
2023-01-29T06:56:29.753Z,0.70
2023-01-29T06:57:29.755Z,0.72
2023-01-29T06:58:29.788Z,0.65
2023-01-29T06:59:29.748Z,0.79
2023-01-29T07:00:31.469Z,0.78
2023-01-29T07:01:36.179Z,0.79
2023-01-29T07:02:31.776Z,0.78
2023-01-29T07:03:29.734Z,0.78
2023-01-29T07:04:29.722Z,0.76
2023-01-29T07:05:29.709Z,0.75
2023-01-29T07:06:29.720Z,0.79
2023-01-29T07:07:29.713Z,0.76
2023-01-29T07:08:29.699Z,0.61
2023-01-29T07:09:29.688Z,0.61
2023-01-29T07:10:29.792Z,0.31
2023-01-29T07:11:29.681Z,0.28
2023-01-29T07:12:29.677Z,0.28
2023-01-29T07:13:30.673Z,0.38
2023-01-29T07:14:29.664Z,0.49
2023-01-29T07:15:29.650Z,0.53
2023-01-29T07:16:29.865Z,0.46
2023-01-29T07:17:29.661Z,0.49
2023-01-29T07:18:29.655Z,0.51
2023-01-29T07:19:29.641Z,0.48
2023-01-29T07:20:29.742Z,0.25
2023-01-29T07:21:29.619Z,0.30
2023-01-29T07:22:29.633Z,0.38
2023-01-29T07:23:29.613Z,0.30
2023-01-29T07:24:29.727Z,0.16
2023-01-29T07:25:29.614Z,0.33
2023-01-29T07:26:29.592Z,0.42
2023-01-29T07:27:29.586Z,0.51
2023-01-29T07:28:30.602Z,0.72
2023-01-29T07:29:29.580Z,0.75
2023-01-29T07:30:29.564Z,0.79
2023-01-29T07:31:29.637Z,0.86
2023-01-29T07:32:29.559Z,0.89
2023-01-29T07:33:29.563Z,0.98
2023-01-29T07:34:29.585Z,0.92
2023-01-29T07:35:29.544Z,0.83
2023-01-29T07:36:29.554Z,0.89
2023-01-29T07:37:29.573Z,0.75
2023-01-29T07:38:29.539Z,0.85
2023-01-29T07:39:29.531Z,0.97
2023-01-29T07:40:29.537Z,0.86
2023-01-29T07:41:29.506Z,0.83
2023-01-29T07:42:29.488Z,0.90
2023-01-29T07:43:29.494Z,0.83
2023-01-29T07:44:29.500Z,0.94
2023-01-29T07:45:30.507Z,0.96
2023-01-29T07:46:29.490Z,1.14
2023-01-29T07:47:29.481Z,1.04
2023-01-29T07:48:29.459Z,0.97
2023-01-29T07:49:29.507Z,0.90
2023-01-29T07:50:29.455Z,0.97
2023-01-29T07:51:29.445Z,0.97
2023-01-29T07:52:29.457Z,0.96
2023-01-29T07:53:29.464Z,0.92
2023-01-29T07:54:29.464Z,0.96
2023-01-29T07:55:29.426Z,1.04
2023-01-29T07:56:29.416Z,0.96
2023-01-29T07:57:29.409Z,0.92
2023-01-29T07:58:29.404Z,1.00
2023-01-29T07:59:29.403Z,0.90
2023-01-29T08:00:29.398Z,0.97
2023-01-29T08:01:29.401Z,1.06
2023-01-29T08:02:29.425Z,0.94
2023-01-29T08:03:29.381Z,0.94
2023-01-29T08:04:29.376Z,1.00
2023-01-29T08:05:29.365Z,1.04
2023-01-29T08:06:29.357Z,1.14
2023-01-29T08:07:29.350Z,1.18
2023-01-29T08:08:29.337Z,1.33
2023-01-29T08:09:29.329Z,1.32
2023-01-29T08:10:29.331Z,1.08
2023-01-29T08:11:29.343Z,1.08
2023-01-29T08:12:29.324Z,1.07
2023-01-29T08:13:29.308Z,1.03
2023-01-29T08:14:29.311Z,1.22
2023-01-29T08:15:29.299Z,1.22
2023-01-29T08:16:29.326Z,1.03
2023-01-29T08:17:29.302Z,0.96
2023-01-29T08:18:29.280Z,1.04
2023-01-29T08:19:29.262Z,1.00
2023-01-29T08:20:29.290Z,1.12
2023-01-29T08:21:29.262Z,1.16
2023-01-29T08:22:29.243Z,1.12
2023-01-29T08:23:29.257Z,1.07
2023-01-29T08:24:41.521Z,1.08
2023-01-29T08:25:30.299Z,0.88
2023-01-29T08:26:29.245Z,0.88
2023-01-29T08:27:29.210Z,0.79
2023-01-29T08:28:29.216Z,0.89
2023-01-29T08:29:29.208Z,0.85
2023-01-29T08:30:29.234Z,0.90
2023-01-29T08:31:29.228Z,0.82
2023-01-29T08:32:29.212Z,0.78
2023-01-29T08:33:38.651Z,1.06
2023-01-29T08:34:31.167Z,1.00
2023-01-29T08:35:29.176Z,0.97
2023-01-29T08:36:29.169Z,1.00
2023-01-29T08:37:29.161Z,1.04
2023-01-29T08:38:29.143Z,1.36
2023-01-29T08:39:29.157Z,1.37
2023-01-29T08:40:29.168Z,1.36
2023-01-29T08:41:29.139Z,1.39
2023-01-29T08:42:29.147Z,1.51
2023-01-29T08:43:29.118Z,1.42
2023-01-29T08:44:29.127Z,1.37
2023-01-29T08:45:29.153Z,1.33
2023-01-29T08:46:29.112Z,1.10
2023-01-29T08:47:29.672Z,1.28
2023-01-29T08:48:29.101Z,1.43
2023-01-29T08:49:29.079Z,1.46
2023-01-29T08:50:29.069Z,1.58
2023-01-29T08:51:29.085Z,1.43
2023-01-29T08:52:29.053Z,1.50
2023-01-29T08:53:29.062Z,1.61
2023-01-29T08:54:29.049Z,1.65
2023-01-29T08:55:29.048Z,1.60
2023-01-29T08:56:29.029Z,1.62
2023-01-29T08:57:29.054Z,1.72
2023-01-29T08:58:29.079Z,1.65
2023-01-29T08:59:29.011Z,1.46
2023-01-29T09:00:28.991Z,1.36
2023-01-29T09:01:30.070Z,1.28
2023-01-29T09:02:29.062Z,1.28
2023-01-29T09:03:29.001Z,1.37
2023-01-29T09:04:29.036Z,1.55
2023-01-29T09:05:28.979Z,1.79
2023-01-29T09:06:28.971Z,1.69
2023-01-29T09:07:28.964Z,1.75
2023-01-29T09:08:28.974Z,1.79
2023-01-29T09:09:28.967Z,1.93
2023-01-29T09:10:28.940Z,1.73
2023-01-29T09:11:28.946Z,1.29
2023-01-29T09:12:28.942Z,1.08
2023-01-29T09:13:28.940Z,1.16
2023-01-29T09:14:28.924Z,1.33
2023-01-29T09:15:28.908Z,1.44
2023-01-29T09:16:29.925Z,1.54
2023-01-29T09:17:28.895Z,1.85
2023-01-29T09:18:28.910Z,2.08
2023-01-29T09:19:28.894Z,2.04
2023-01-29T09:20:28.878Z,2.17
2023-01-29T09:21:28.887Z,2.17
2023-01-29T09:22:28.863Z,2.28
2023-01-29T09:23:28.874Z,2.37
2023-01-29T09:24:28.890Z,2.19
2023-01-29T09:25:28.848Z,2.17
2023-01-29T09:26:28.863Z,1.99
2023-01-29T09:27:28.854Z,2.06
2023-01-29T09:28:28.823Z,1.87
2023-01-29T09:29:28.849Z,1.99
2023-01-29T09:30:28.838Z,2.28
2023-01-29T09:31:28.924Z,2.04
2023-01-29T09:32:53.092Z,2.04
2023-01-29T09:33:30.806Z,2.35
2023-01-29T09:34:30.599Z,2.26
2023-01-29T09:35:28.815Z,2.37
2023-01-29T09:36:28.768Z,2.48
2023-01-29T09:37:28.803Z,2.41
2023-01-29T09:38:28.783Z,2.59
2023-01-29T09:39:28.773Z,2.49
2023-01-29T09:40:28.781Z,2.41
2023-01-29T09:41:28.770Z,2.45
2023-01-29T09:42:28.731Z,2.53
2023-01-29T09:43:28.736Z,2.59
2023-01-29T09:44:28.739Z,2.71
2023-01-29T09:45:28.743Z,2.91
2023-01-29T09:46:28.718Z,2.88
2023-01-29T09:47:28.720Z,2.70
2023-01-29T09:48:28.705Z,2.64
2023-01-29T09:49:28.690Z,2.52
2023-01-29T09:50:28.748Z,2.67
2023-01-29T09:51:28.706Z,2.67
2023-01-29T09:52:28.715Z,2.79
2023-01-29T09:53:28.694Z,2.61
2023-01-29T09:54:28.671Z,2.71
2023-01-29T09:55:28.672Z,2.73
2023-01-29T09:56:28.720Z,2.15
2023-01-29T09:57:29.470Z,1.85
2023-01-29T09:58:28.657Z,1.98
2023-01-29T09:59:28.675Z,2.16
2023-01-29T10:00:28.636Z,2.19
2023-01-29T10:01:28.712Z,2.17
2023-01-29T10:02:28.625Z,2.23
2023-01-29T10:03:28.622Z,2.33
2023-01-29T10:04:28.659Z,2.28
2023-01-29T10:05:28.637Z,2.19
2023-01-29T10:06:28.697Z,2.10
2023-01-29T10:07:28.603Z,2.09
2023-01-29T10:08:28.723Z,2.12
2023-01-29T10:09:28.574Z,1.94
2023-01-29T10:10:28.596Z,2.12
2023-01-29T10:11:28.567Z,2.09
2023-01-29T10:12:28.571Z,1.99
2023-01-29T10:13:28.621Z,2.15
2023-01-29T10:14:28.542Z,1.99
2023-01-29T10:15:28.551Z,2.02
2023-01-29T10:16:28.732Z,2.16
2023-01-29T10:17:28.567Z,2.23
2023-01-29T10:18:28.525Z,2.23
2023-01-29T10:19:28.696Z,2.15
2023-01-29T10:20:28.522Z,2.28
2023-01-29T10:21:28.506Z,2.35
2023-01-29T10:22:28.505Z,2.41
2023-01-29T10:23:28.523Z,2.48
2023-01-29T10:24:28.501Z,2.08
2023-01-29T10:25:28.478Z,2.06
2023-01-29T10:26:28.545Z,2.06
2023-01-29T10:27:28.473Z,1.99
2023-01-29T10:28:28.482Z,2.13
2023-01-29T10:29:28.467Z,2.15
2023-01-29T10:30:28.475Z,2.30
2023-01-29T10:31:28.591Z,2.27
2023-01-29T10:32:28.435Z,1.98
2023-01-29T10:33:29.587Z,1.97
2023-01-29T10:34:28.472Z,2.15
2023-01-29T10:35:28.432Z,2.06
2023-01-29T10:36:28.427Z,2.15
2023-01-29T10:37:28.466Z,2.12
2023-01-29T10:38:28.421Z,2.26
2023-01-29T10:39:28.420Z,2.27
2023-01-29T10:40:28.430Z,2.27
2023-01-29T10:41:28.509Z,1.98
2023-01-29T10:42:28.380Z,1.98
2023-01-29T10:43:28.988Z,2.09
2023-01-29T10:44:28.364Z,2.19
2023-01-29T10:45:28.369Z,2.15
2023-01-29T10:46:28.371Z,2.44
2023-01-29T10:47:30.241Z,2.38
2023-01-29T10:48:29.344Z,2.52
2023-01-29T10:49:28.430Z,2.45
2023-01-29T10:50:28.331Z,2.71
2023-01-29T10:51:28.348Z,2.45
2023-01-29T10:52:28.423Z,2.44
2023-01-29T10:53:28.333Z,2.38
2023-01-29T10:54:28.307Z,2.34
2023-01-29T10:55:28.393Z,2.52
2023-01-29T10:56:28.954Z,2.41
2023-01-29T10:57:28.291Z,2.52
2023-01-29T10:58:28.581Z,2.58
2023-01-29T10:59:28.292Z,2.70
2023-01-29T11:00:28.252Z,2.66
2023-01-29T11:01:28.373Z,2.52
2023-01-29T11:02:28.286Z,2.53
2023-01-29T11:03:29.175Z,2.58
2023-01-29T11:04:29.523Z,2.67
2023-01-29T11:05:28.310Z,2.85
2023-01-29T11:06:28.284Z,2.81
2023-01-29T11:07:28.260Z,2.77
2023-01-29T11:08:28.292Z,2.87
2023-01-29T11:09:28.208Z,2.79
2023-01-29T11:10:28.235Z,2.82
2023-01-29T11:11:28.203Z,2.82
2023-01-29T11:12:28.193Z,2.85
2023-01-29T11:13:28.201Z,2.73
2023-01-29T11:14:28.199Z,2.92
2023-01-29T11:15:28.187Z,2.69
2023-01-29T11:16:28.177Z,2.53
2023-01-29T11:17:28.186Z,2.66
2023-01-29T11:18:28.150Z,2.85
2023-01-29T11:19:28.164Z,2.94
2023-01-29T11:20:28.911Z,2.64
2023-01-29T11:21:28.145Z,2.82
2023-01-29T11:22:28.144Z,2.89
2023-01-29T11:23:28.124Z,2.64
2023-01-29T11:24:28.146Z,2.66
2023-01-29T11:25:28.186Z,2.87
2023-01-29T11:26:28.139Z,2.88
2023-01-29T11:27:28.128Z,3.09
2023-01-29T11:28:28.093Z,2.84
2023-01-29T11:29:28.201Z,2.52
2023-01-29T11:30:28.090Z,2.58
2023-01-29T11:31:28.161Z,2.74
2023-01-29T11:32:28.159Z,2.98
2023-01-29T11:33:28.072Z,3.09
2023-01-29T11:34:28.048Z,3.20
2023-01-29T11:35:28.065Z,3.33
2023-01-29T11:36:28.565Z,3.18
2023-01-29T11:37:29.041Z,3.10
2023-01-29T11:38:28.054Z,3.06
2023-01-29T11:39:28.044Z,3.07
2023-01-29T11:40:28.035Z,3.21
2023-01-29T11:41:28.033Z,3.21
2023-01-29T11:42:28.014Z,3.24
2023-01-29T11:43:34.496Z,3.20
2023-01-29T11:44:28.025Z,3.31
2023-01-29T11:45:28.089Z,3.42
2023-01-29T11:46:28.025Z,3.44
2023-01-29T11:47:28.274Z,3.42
2023-01-29T11:48:27.975Z,3.21
2023-01-29T11:49:27.972Z,3.57
2023-01-29T11:50:28.036Z,3.79
2023-01-29T11:51:27.959Z,3.83
2023-01-29T11:52:28.027Z,4.28
2023-01-29T11:53:28.486Z,4.46
2023-01-29T11:54:28.468Z,4.32
2023-01-29T11:55:29.718Z,4.25
2023-01-29T11:56:29.042Z,4.24
2023-01-29T11:57:28.496Z,4.00
2023-01-29T11:58:28.460Z,3.67
2023-01-29T11:59:28.040Z,3.30
2023-01-29T12:00:27.904Z,3.49
2023-01-29T12:01:27.975Z,3.33
2023-01-29T12:02:27.895Z,3.31
2023-01-29T12:03:28.014Z,3.25
2023-01-29T12:04:27.880Z,3.31
2023-01-29T12:05:27.919Z,3.25
2023-01-29T12:06:27.880Z,3.18
2023-01-29T12:07:27.900Z,3.30
2023-01-29T12:08:27.869Z,3.46
2023-01-29T12:09:27.847Z,3.53
2023-01-29T12:10:27.868Z,3.57
2023-01-29T12:11:27.849Z,3.75
2023-01-29T12:12:27.826Z,3.53
2023-01-29T12:13:27.832Z,3.57
2023-01-29T12:14:27.807Z,3.70
2023-01-29T12:15:27.830Z,3.53
2023-01-29T12:16:27.966Z,3.39
2023-01-29T12:17:27.809Z,3.02
2023-01-29T12:18:27.781Z,3.07
2023-01-29T12:19:27.826Z,3.27
2023-01-29T12:20:27.793Z,3.53
2023-01-29T12:21:27.809Z,3.62
2023-01-29T12:22:27.755Z,3.52
2023-01-29T12:23:27.779Z,3.46
2023-01-29T12:24:27.749Z,3.67
2023-01-29T12:25:27.754Z,3.61
2023-01-29T12:26:27.859Z,3.68
2023-01-29T12:27:27.728Z,3.80
2023-01-29T12:28:27.727Z,4.01
2023-01-29T12:29:27.763Z,4.14
2023-01-29T12:30:27.757Z,4.33
2023-01-29T12:31:27.768Z,4.43
2023-01-29T12:32:27.730Z,4.52
2023-01-29T12:33:27.711Z,4.52
2023-01-29T12:34:27.684Z,4.52
2023-01-29T12:35:27.686Z,4.42
2023-01-29T12:36:27.705Z,3.60
2023-01-29T12:37:27.689Z,3.71
2023-01-29T12:38:27.691Z,3.80
2023-01-29T12:39:27.677Z,4.21
2023-01-29T12:40:27.668Z,4.01
2023-01-29T12:41:27.672Z,4.33
2023-01-29T12:42:27.655Z,4.21
2023-01-29T12:43:27.671Z,4.24
2023-01-29T12:44:27.650Z,4.26
2023-01-29T12:45:27.635Z,3.80
2023-01-29T12:46:27.722Z,3.61
2023-01-29T12:47:27.609Z,3.79
2023-01-29T12:48:28.639Z,4.14
2023-01-29T12:49:27.615Z,4.34
2023-01-29T12:50:27.607Z,4.12
2023-01-29T12:51:27.618Z,4.10
2023-01-29T12:52:27.604Z,4.21
2023-01-29T12:53:27.586Z,3.88
2023-01-29T12:54:27.610Z,4.12
2023-01-29T12:55:27.581Z,4.47
2023-01-29T12:56:27.591Z,4.46
2023-01-29T12:57:27.565Z,4.40
2023-01-29T12:58:27.561Z,4.37
2023-01-29T12:59:29.230Z,3.98
2023-01-29T13:00:28.554Z,4.04
2023-01-29T13:01:27.561Z,4.04
2023-01-29T13:02:27.543Z,3.83
2023-01-29T13:03:27.621Z,3.86
2023-01-29T13:04:27.528Z,4.37
2023-01-29T13:05:28.581Z,4.43
2023-01-29T13:06:27.517Z,4.55
2023-01-29T13:07:27.514Z,4.67
2023-01-29T13:08:27.538Z,4.65
2023-01-29T13:09:27.490Z,4.46
2023-01-29T13:10:27.506Z,4.46
2023-01-29T13:11:27.486Z,4.69
2023-01-29T13:12:27.618Z,4.79
2023-01-29T13:13:28.975Z,4.96
2023-01-29T13:14:27.544Z,4.80
2023-01-29T13:15:27.702Z,4.70
2023-01-29T13:16:27.541Z,4.58
2023-01-29T13:17:28.563Z,4.62
2023-01-29T13:18:28.577Z,4.69